sensor_id;sensor_type;location;lat;lon;timestamp;temperature;humidity
16243;DHT22;11719;51.052;6.982;2022-12-29T00:02:22;13.70;99.90
16243;DHT22;11719;51.052;6.982;2022-12-29T00:04:49;13.70;99.90
16243;DHT22;11719;51.052;6.982;2022-12-29T00:07:17;13.70;99.90
16243;DHT22;11719;51.052;6.982;2022-12-29T00:09:43;13.70;99.90
16243;DHT22;11719;51.052;6.982;2022-12-29T00:12:09;13.70;99.90
16243;DHT22;11719;51.052;6.982;2022-12-29T00:14:34;13.70;99.90
16243;DHT22;11719;51.052;6.982;2022-12-29T00:17:19;13.80;99.90
16243;DHT22;11719;51.052;6.982;2022-12-29T00:19:44;13.70;99.90
16243;DHT22;11719;51.052;6.982;2022-12-29T00:22:29;13.70;99.90
16243;DHT22;11719;51.052;6.982;2022-12-29T00:25:13;13.60;99.90
16243;DHT22;11719;51.052;6.982;2022-12-29T00:27:58;13.70;99.90
16243;DHT22;11719;51.052;6.982;2022-12-29T00:30:43;13.70;99.90
16243;DHT22;11719;51.052;6.982;2022-12-29T00:33:32;13.70;99.90
16243;DHT22;11719;51.052;6.982;2022-12-29T00:39:02;13.70;99.90
16243;DHT22;11719;51.052;6.982;2022-12-29T00:41:48;13.60;99.90
16243;DHT22;11719;51.052;6.982;2022-12-29T00:44:32;13.60;99.90
16243;DHT22;11719;51.052;6.982;2022-12-29T00:46:58;13.50;99.90
16243;DHT22;11719;51.052;6.982;2022-12-29T00:49:28;13.50;99.90
16243;DHT22;11719;51.052;6.982;2022-12-29T00:52:06;13.50;99.90
16243;DHT22;11719;51.052;6.982;2022-12-29T00:54:35;13.50;99.90
16243;DHT22;11719;51.052;6.982;2022-12-29T00:57:03;13.50;99.90
16243;DHT22;11719;51.052;6.982;2022-12-29T00:59:30;13.50;99.90
16243;DHT22;11719;51.052;6.982;2022-12-29T01:01:56;13.60;99.90
16243;DHT22;11719;51.052;6.982;2022-12-29T01:04:24;13.60;99.90
16243;DHT22;11719;51.052;6.982;2022-12-29T01:06:51;13.60;99.90
16243;DHT22;11719;51.052;6.982;2022-12-29T01:09:18;13.50;99.90
16243;DHT22;11719;51.052;6.982;2022-12-29T01:12:04;13.60;99.90
16243;DHT22;11719;51.052;6.982;2022-12-29T01:14:31;13.50;99.90
16243;DHT22;11719;51.052;6.982;2022-12-29T01:16:57;13.50;99.90
16243;DHT22;11719;51.052;6.982;2022-12-29T01:19:23;13.50;99.90
16243;DHT22;11719;51.052;6.982;2022-12-29T01:21:50;13.50;99.90
16243;DHT22;11719;51.052;6.982;2022-12-29T01:24:17;13.50;99.90
16243;DHT22;11719;51.052;6.982;2022-12-29T01:26:44;13.50;99.90
16243;DHT22;11719;51.052;6.982;2022-12-29T01:29:10;13.50;99.90
16243;DHT22;11719;51.052;6.982;2022-12-29T01:31:37;13.50;99.90
16243;DHT22;11719;51.052;6.982;2022-12-29T01:34:03;13.50;99.90
16243;DHT22;11719;51.052;6.982;2022-12-29T01:36:30;13.60;99.90
16243;DHT22;11719;51.052;6.982;2022-12-29T01:38:56;13.60;99.90
16243;DHT22;11719;51.052;6.982;2022-12-29T01:41:22;13.60;99.90
16243;DHT22;11719;51.052;6.982;2022-12-29T01:43:51;13.70;99.90
16243;DHT22;11719;51.052;6.982;2022-12-29T01:51:40;13.70;99.90
16243;DHT22;11719;51.052;6.982;2022-12-29T01:54:13;13.70;99.90
16243;DHT22;11719;51.052;6.982;2022-12-29T01:56:45;13.70;99.90
16243;DHT22;11719;51.052;6.982;2022-12-29T01:59:15;13.80;99.90
16243;DHT22;11719;51.052;6.982;2022-12-29T02:01:45;13.80;99.90
16243;DHT22;11719;51.052;6.982;2022-12-29T02:04:11;13.80;99.90
16243;DHT22;11719;51.052;6.982;2022-12-29T02:06:46;13.80;99.90
16243;DHT22;11719;51.052;6.982;2022-12-29T02:09:15;13.80;99.90
16243;DHT22;11719;51.052;6.982;2022-12-29T02:11:41;13.90;99.90
16243;DHT22;11719;51.052;6.982;2022-12-29T02:14:11;13.90;99.90
16243;DHT22;11719;51.052;6.982;2022-12-29T02:16:49;13.90;99.90
16243;DHT22;11719;51.052;6.982;2022-12-29T02:26:19;14.10;99.90
16243;DHT22;11719;51.052;6.982;2022-12-29T02:40:22;14.30;99.90
16243;DHT22;11719;51.052;6.982;2022-12-29T02:43:00;14.30;99.90
16243;DHT22;11719;51.052;6.982;2022-12-29T02:48:45;14.40;99.90
16243;DHT22;11719;51.052;6.982;2022-12-29T02:51:33;14.40;99.90
16243;DHT22;11719;51.052;6.982;2022-12-29T02:54:03;14.40;99.90
16243;DHT22;11719;51.052;6.982;2022-12-29T02:56:48;14.30;99.90
16243;DHT22;11719;51.052;6.982;2022-12-29T02:59:14;14.30;99.90
16243;DHT22;11719;51.052;6.982;2022-12-29T03:02:19;14.30;99.90
16243;DHT22;11719;51.052;6.982;2022-12-29T03:08:30;14.30;99.90
16243;DHT22;11719;51.052;6.982;2022-12-29T03:11:48;14.30;99.90
16243;DHT22;11719;51.052;6.982;2022-12-29T03:14:44;14.30;99.90
16243;DHT22;11719;51.052;6.982;2022-12-29T03:17:48;14.40;99.90
16243;DHT22;11719;51.052;6.982;2022-12-29T03:20:25;14.40;99.90
16243;DHT22;11719;51.052;6.982;2022-12-29T03:22:58;14.40;99.90
16243;DHT22;11719;51.052;6.982;2022-12-29T03:25:32;14.40;99.90
16243;DHT22;11719;51.052;6.982;2022-12-29T03:28:03;14.40;99.90
16243;DHT22;11719;51.052;6.982;2022-12-29T03:30:34;14.40;99.90
16243;DHT22;11719;51.052;6.982;2022-12-29T03:33:08;14.40;99.90
16243;DHT22;11719;51.052;6.982;2022-12-29T03:35:37;14.40;99.90
16243;DHT22;11719;51.052;6.982;2022-12-29T03:38:18;14.40;99.90
16243;DHT22;11719;51.052;6.982;2022-12-29T03:41:09;14.40;99.90
16243;DHT22;11719;51.052;6.982;2022-12-29T03:43:37;14.40;99.90
16243;DHT22;11719;51.052;6.982;2022-12-29T03:46:03;14.30;99.90
16243;DHT22;11719;51.052;6.982;2022-12-29T03:48:29;14.30;99.90
16243;DHT22;11719;51.052;6.982;2022-12-29T03:50:54;14.40;99.90
16243;DHT22;11719;51.052;6.982;2022-12-29T03:53:20;14.40;99.90
16243;DHT22;11719;51.052;6.982;2022-12-29T03:55:46;14.40;99.90
16243;DHT22;11719;51.052;6.982;2022-12-29T03:58:12;14.40;99.90
16243;DHT22;11719;51.052;6.982;2022-12-29T04:00:38;14.40;99.90
16243;DHT22;11719;51.052;6.982;2022-12-29T04:03:03;14.40;99.90
16243;DHT22;11719;51.052;6.982;2022-12-29T04:05:29;14.40;99.90
16243;DHT22;11719;51.052;6.982;2022-12-29T04:07:56;14.40;99.90
16243;DHT22;11719;51.052;6.982;2022-12-29T04:10:22;14.50;99.90
16243;DHT22;11719;51.052;6.982;2022-12-29T04:12:48;14.40;99.90
16243;DHT22;11719;51.052;6.982;2022-12-29T04:15:14;14.40;99.90
16243;DHT22;11719;51.052;6.982;2022-12-29T04:17:39;14.50;99.90
16243;DHT22;11719;51.052;6.982;2022-12-29T04:20:05;14.40;99.90
16243;DHT22;11719;51.052;6.982;2022-12-29T04:23:00;14.40;99.90
16243;DHT22;11719;51.052;6.982;2022-12-29T04:25:33;14.40;99.90
16243;DHT22;11719;51.052;6.982;2022-12-29T04:28:00;14.40;99.90
16243;DHT22;11719;51.052;6.982;2022-12-29T04:30:26;14.50;99.90
16243;DHT22;11719;51.052;6.982;2022-12-29T04:32:52;14.50;99.90
16243;DHT22;11719;51.052;6.982;2022-12-29T04:35:17;14.50;99.90
16243;DHT22;11719;51.052;6.982;2022-12-29T04:37:43;14.50;99.90
16243;DHT22;11719;51.052;6.982;2022-12-29T04:40:09;14.50;99.90
16243;DHT22;11719;51.052;6.982;2022-12-29T04:42:36;14.50;99.90
16243;DHT22;11719;51.052;6.982;2022-12-29T04:45:01;14.50;99.90
16243;DHT22;11719;51.052;6.982;2022-12-29T04:47:27;14.40;99.90
16243;DHT22;11719;51.052;6.982;2022-12-29T04:49:53;14.40;99.90
16243;DHT22;11719;51.052;6.982;2022-12-29T04:52:19;14.40;99.90
16243;DHT22;11719;51.052;6.982;2022-12-29T04:54:44;14.40;99.90
16243;DHT22;11719;51.052;6.982;2022-12-29T04:57:10;14.40;99.90
16243;DHT22;11719;51.052;6.982;2022-12-29T04:59:36;14.40;99.90
16243;DHT22;11719;51.052;6.982;2022-12-29T05:02:02;14.40;99.90
16243;DHT22;11719;51.052;6.982;2022-12-29T05:04:28;14.40;99.90
16243;DHT22;11719;51.052;6.982;2022-12-29T05:06:53;14.50;99.90
16243;DHT22;11719;51.052;6.982;2022-12-29T05:09:19;14.50;99.90
16243;DHT22;11719;51.052;6.982;2022-12-29T05:11:45;14.40;99.90
16243;DHT22;11719;51.052;6.982;2022-12-29T05:14:11;14.40;99.90
16243;DHT22;11719;51.052;6.982;2022-12-29T05:16:36;14.40;99.90
16243;DHT22;11719;51.052;6.982;2022-12-29T05:19:02;14.50;99.90
16243;DHT22;11719;51.052;6.982;2022-12-29T05:21:28;14.60;99.90
16243;DHT22;11719;51.052;6.982;2022-12-29T05:23:54;14.50;99.90
16243;DHT22;11719;51.052;6.982;2022-12-29T05:26:20;14.50;99.90
16243;DHT22;11719;51.052;6.982;2022-12-29T05:28:46;14.50;99.90
16243;DHT22;11719;51.052;6.982;2022-12-29T05:31:12;14.60;99.90
16243;DHT22;11719;51.052;6.982;2022-12-29T05:33:37;14.60;99.90
16243;DHT22;11719;51.052;6.982;2022-12-29T05:36:08;14.60;99.90
16243;DHT22;11719;51.052;6.982;2022-12-29T05:38:35;14.60;99.90
16243;DHT22;11719;51.052;6.982;2022-12-29T05:41:01;14.60;99.90
16243;DHT22;11719;51.052;6.982;2022-12-29T05:43:27;14.70;99.90
16243;DHT22;11719;51.052;6.982;2022-12-29T05:45:53;14.70;99.90
16243;DHT22;11719;51.052;6.982;2022-12-29T05:48:19;14.70;99.90
16243;DHT22;11719;51.052;6.982;2022-12-29T05:50:49;14.60;99.90
16243;DHT22;11719;51.052;6.982;2022-12-29T05:53:16;14.60;99.90
16243;DHT22;11719;51.052;6.982;2022-12-29T05:55:44;14.70;99.90
16243;DHT22;11719;51.052;6.982;2022-12-29T05:58:11;14.70;99.90
16243;DHT22;11719;51.052;6.982;2022-12-29T06:00:37;14.70;99.90
16243;DHT22;11719;51.052;6.982;2022-12-29T06:03:03;14.70;99.90
16243;DHT22;11719;51.052;6.982;2022-12-29T06:05:29;14.70;99.90
16243;DHT22;11719;51.052;6.982;2022-12-29T06:07:55;14.70;99.90
16243;DHT22;11719;51.052;6.982;2022-12-29T06:10:21;14.80;99.90
16243;DHT22;11719;51.052;6.982;2022-12-29T06:12:47;14.80;99.90
16243;DHT22;11719;51.052;6.982;2022-12-29T06:15:13;14.80;99.90
16243;DHT22;11719;51.052;6.982;2022-12-29T06:17:39;14.80;99.90
16243;DHT22;11719;51.052;6.982;2022-12-29T06:20:07;14.80;99.90
16243;DHT22;11719;51.052;6.982;2022-12-29T06:22:34;14.70;99.90
16243;DHT22;11719;51.052;6.982;2022-12-29T06:24:59;14.70;99.90
16243;DHT22;11719;51.052;6.982;2022-12-29T06:27:27;14.70;99.90
16243;DHT22;11719;51.052;6.982;2022-12-29T06:29:53;14.70;99.90
16243;DHT22;11719;51.052;6.982;2022-12-29T06:32:19;14.70;99.90
16243;DHT22;11719;51.052;6.982;2022-12-29T06:34:45;14.70;99.90
16243;DHT22;11719;51.052;6.982;2022-12-29T06:37:11;14.70;99.90
16243;DHT22;11719;51.052;6.982;2022-12-29T06:39:37;14.70;99.90
16243;DHT22;11719;51.052;6.982;2022-12-29T06:42:03;14.70;99.90
16243;DHT22;11719;51.052;6.982;2022-12-29T06:44:29;14.60;99.90
16243;DHT22;11719;51.052;6.982;2022-12-29T06:46:55;14.70;99.90
16243;DHT22;11719;51.052;6.982;2022-12-29T06:49:22;14.70;99.90
16243;DHT22;11719;51.052;6.982;2022-12-29T06:51:47;14.70;99.90
16243;DHT22;11719;51.052;6.982;2022-12-29T06:54:13;14.80;99.90
16243;DHT22;11719;51.052;6.982;2022-12-29T06:56:39;14.70;99.90
16243;DHT22;11719;51.052;6.982;2022-12-29T06:59:05;14.70;99.90
16243;DHT22;11719;51.052;6.982;2022-12-29T07:01:31;14.80;99.90
16243;DHT22;11719;51.052;6.982;2022-12-29T07:03:57;14.70;99.90
16243;DHT22;11719;51.052;6.982;2022-12-29T07:06:23;14.70;99.90
16243;DHT22;11719;51.052;6.982;2022-12-29T07:08:49;14.80;99.90
16243;DHT22;11719;51.052;6.982;2022-12-29T07:11:15;14.80;99.90
16243;DHT22;11719;51.052;6.982;2022-12-29T07:13:40;14.80;99.90
16243;DHT22;11719;51.052;6.982;2022-12-29T07:16:10;14.80;99.90
16243;DHT22;11719;51.052;6.982;2022-12-29T07:18:35;14.70;99.90
16243;DHT22;11719;51.052;6.982;2022-12-29T07:21:02;14.70;99.90
16243;DHT22;11719;51.052;6.982;2022-12-29T07:23:28;14.80;99.90
16243;DHT22;11719;51.052;6.982;2022-12-29T07:26:05;14.70;99.90
16243;DHT22;11719;51.052;6.982;2022-12-29T07:28:33;14.70;99.90
16243;DHT22;11719;51.052;6.982;2022-12-29T07:31:00;14.60;99.90
16243;DHT22;11719;51.052;6.982;2022-12-29T07:33:28;14.60;99.90
16243;DHT22;11719;51.052;6.982;2022-12-29T07:35:54;14.60;99.90
16243;DHT22;11719;51.052;6.982;2022-12-29T07:38:20;14.80;99.90
16243;DHT22;11719;51.052;6.982;2022-12-29T07:40:46;14.80;99.90
16243;DHT22;11719;51.052;6.982;2022-12-29T07:43:12;14.70;99.90
16243;DHT22;11719;51.052;6.982;2022-12-29T07:45:38;14.70;99.90
16243;DHT22;11719;51.052;6.982;2022-12-29T07:48:04;14.60;99.90
16243;DHT22;11719;51.052;6.982;2022-12-29T07:50:34;14.60;99.90
16243;DHT22;11719;51.052;6.982;2022-12-29T07:53:00;14.50;99.90
16243;DHT22;11719;51.052;6.982;2022-12-29T07:55:26;14.50;99.90
16243;DHT22;11719;51.052;6.982;2022-12-29T07:57:56;14.50;99.90
16243;DHT22;11719;51.052;6.982;2022-12-29T08:00:22;14.50;99.90
16243;DHT22;11719;51.052;6.982;2022-12-29T08:02:48;14.50;99.90
16243;DHT22;11719;51.052;6.982;2022-12-29T08:05:15;14.40;99.90
16243;DHT22;11719;51.052;6.982;2022-12-29T08:07:43;14.50;99.90
16243;DHT22;11719;51.052;6.982;2022-12-29T08:10:10;14.50;99.90
16243;DHT22;11719;51.052;6.982;2022-12-29T08:12:38;14.50;99.90
16243;DHT22;11719;51.052;6.982;2022-12-29T08:15:05;14.50;99.90
16243;DHT22;11719;51.052;6.982;2022-12-29T08:17:31;14.50;99.90
16243;DHT22;11719;51.052;6.982;2022-12-29T08:19:57;14.50;99.90
16243;DHT22;11719;51.052;6.982;2022-12-29T08:22:24;14.50;99.90
16243;DHT22;11719;51.052;6.982;2022-12-29T08:24:49;14.60;99.90
16243;DHT22;11719;51.052;6.982;2022-12-29T08:27:16;14.50;99.90
16243;DHT22;11719;51.052;6.982;2022-12-29T08:29:41;14.50;99.90
16243;DHT22;11719;51.052;6.982;2022-12-29T08:32:07;14.60;99.90
16243;DHT22;11719;51.052;6.982;2022-12-29T08:34:33;14.50;99.90
16243;DHT22;11719;51.052;6.982;2022-12-29T08:36:59;14.40;99.90
16243;DHT22;11719;51.052;6.982;2022-12-29T08:39:24;14.40;99.90
16243;DHT22;11719;51.052;6.982;2022-12-29T08:41:50;14.30;99.90
16243;DHT22;11719;51.052;6.982;2022-12-29T08:44:16;14.40;99.90
16243;DHT22;11719;51.052;6.982;2022-12-29T08:46:42;14.40;99.90
16243;DHT22;11719;51.052;6.982;2022-12-29T08:49:08;14.40;99.90
16243;DHT22;11719;51.052;6.982;2022-12-29T08:51:35;14.40;99.90
16243;DHT22;11719;51.052;6.982;2022-12-29T08:54:01;14.40;99.90
16243;DHT22;11719;51.052;6.982;2022-12-29T08:56:27;14.40;99.90
16243;DHT22;11719;51.052;6.982;2022-12-29T08:58:53;14.40;99.90
16243;DHT22;11719;51.052;6.982;2022-12-29T09:01:19;14.40;99.90
16243;DHT22;11719;51.052;6.982;2022-12-29T09:03:46;14.50;99.90
16243;DHT22;11719;51.052;6.982;2022-12-29T09:06:12;14.50;99.90
16243;DHT22;11719;51.052;6.982;2022-12-29T09:08:38;14.40;99.90
16243;DHT22;11719;51.052;6.982;2022-12-29T09:11:20;14.20;99.90
16243;DHT22;11719;51.052;6.982;2022-12-29T09:13:47;14.10;99.90
16243;DHT22;11719;51.052;6.982;2022-12-29T09:16:14;14.10;99.90
16243;DHT22;11719;51.052;6.982;2022-12-29T09:18:41;14.20;99.90
16243;DHT22;11719;51.052;6.982;2022-12-29T09:21:09;14.30;99.90
16243;DHT22;11719;51.052;6.982;2022-12-29T09:23:35;14.30;99.90
16243;DHT22;11719;51.052;6.982;2022-12-29T09:26:01;14.30;99.90
16243;DHT22;11719;51.052;6.982;2022-12-29T09:28:27;14.40;99.90
16243;DHT22;11719;51.052;6.982;2022-12-29T09:30:55;14.40;99.90
16243;DHT22;11719;51.052;6.982;2022-12-29T09:33:22;14.40;99.90
16243;DHT22;11719;51.052;6.982;2022-12-29T09:35:53;14.40;99.90
16243;DHT22;11719;51.052;6.982;2022-12-29T09:38:21;14.40;99.90
16243;DHT22;11719;51.052;6.982;2022-12-29T09:41:05;14.40;99.90
16243;DHT22;11719;51.052;6.982;2022-12-29T09:46:27;14.40;99.90
16243;DHT22;11719;51.052;6.982;2022-12-29T09:51:33;14.40;99.90
16243;DHT22;11719;51.052;6.982;2022-12-29T09:54:24;14.50;99.90
16243;DHT22;11719;51.052;6.982;2022-12-29T09:56:53;14.50;99.90
16243;DHT22;11719;51.052;6.982;2022-12-29T09:59:24;14.50;99.90
16243;DHT22;11719;51.052;6.982;2022-12-29T10:02:02;14.50;99.90
16243;DHT22;11719;51.052;6.982;2022-12-29T10:04:32;14.40;99.90
16243;DHT22;11719;51.052;6.982;2022-12-29T10:07:05;14.40;99.90
16243;DHT22;11719;51.052;6.982;2022-12-29T10:20:58;14.20;99.90
16243;DHT22;11719;51.052;6.982;2022-12-29T10:23:44;14.30;99.90
16243;DHT22;11719;51.052;6.982;2022-12-29T10:26:23;14.40;99.90
16243;DHT22;11719;51.052;6.982;2022-12-29T10:29:17;14.40;99.90
16243;DHT22;11719;51.052;6.982;2022-12-29T10:34:38;14.40;99.90
16243;DHT22;11719;51.052;6.982;2022-12-29T10:37:27;14.40;99.90
16243;DHT22;11719;51.052;6.982;2022-12-29T10:39:59;14.50;99.90
16243;DHT22;11719;51.052;6.982;2022-12-29T10:42:39;14.60;99.90
16243;DHT22;11719;51.052;6.982;2022-12-29T10:45:13;14.50;99.90
16243;DHT22;11719;51.052;6.982;2022-12-29T10:47:54;14.50;99.90
16243;DHT22;11719;51.052;6.982;2022-12-29T10:50:28;14.50;99.90
16243;DHT22;11719;51.052;6.982;2022-12-29T10:53:00;14.50;99.90
16243;DHT22;11719;51.052;6.982;2022-12-29T10:55:36;14.50;99.90
16243;DHT22;11719;51.052;6.982;2022-12-29T10:58:07;14.50;99.90
16243;DHT22;11719;51.052;6.982;2022-12-29T11:00:36;14.50;99.90
16243;DHT22;11719;51.052;6.982;2022-12-29T11:03:33;14.60;99.90
16243;DHT22;11719;51.052;6.982;2022-12-29T11:09:16;14.50;99.90
16243;DHT22;11719;51.052;6.982;2022-12-29T11:11:48;14.60;99.90
16243;DHT22;11719;51.052;6.982;2022-12-29T11:14:19;14.60;99.90
16243;DHT22;11719;51.052;6.982;2022-12-29T11:17:00;14.60;99.90
16243;DHT22;11719;51.052;6.982;2022-12-29T11:19:30;14.60;99.90
16243;DHT22;11719;51.052;6.982;2022-12-29T11:22:21;14.70;99.90
16243;DHT22;11719;51.052;6.982;2022-12-29T11:24:50;14.70;99.90
16243;DHT22;11719;51.052;6.982;2022-12-29T11:27:23;14.70;99.90
16243;DHT22;11719;51.052;6.982;2022-12-29T11:29:51;14.60;99.90
16243;DHT22;11719;51.052;6.982;2022-12-29T11:34:48;14.60;99.90
16243;DHT22;11719;51.052;6.982;2022-12-29T11:40:18;14.60;99.90
16243;DHT22;11719;51.052;6.982;2022-12-29T11:45:22;14.60;99.90
16243;DHT22;11719;51.052;6.982;2022-12-29T11:47:57;14.60;99.90
16243;DHT22;11719;51.052;6.982;2022-12-29T11:50:28;14.70;99.90
16243;DHT22;11719;51.052;6.982;2022-12-29T11:53:02;14.70;99.90
16243;DHT22;11719;51.052;6.982;2022-12-29T11:55:30;14.60;99.90
16243;DHT22;11719;51.052;6.982;2022-12-29T11:57:59;14.60;99.90
16243;DHT22;11719;51.052;6.982;2022-12-29T12:00:29;14.50;99.90
16243;DHT22;11719;51.052;6.982;2022-12-29T12:03:31;14.60;99.90
16243;DHT22;11719;51.052;6.982;2022-12-29T12:05:58;14.50;99.90
16243;DHT22;11719;51.052;6.982;2022-12-29T12:08:59;14.40;99.90
16243;DHT22;11719;51.052;6.982;2022-12-29T12:11:38;14.40;99.90
16243;DHT22;11719;51.052;6.982;2022-12-29T12:14:19;14.50;99.90
16243;DHT22;11719;51.052;6.982;2022-12-29T12:17:02;14.50;99.90
16243;DHT22;11719;51.052;6.982;2022-12-29T12:19:43;14.50;99.90
16243;DHT22;11719;51.052;6.982;2022-12-29T12:22:33;14.50;99.90
16243;DHT22;11719;51.052;6.982;2022-12-29T12:30:19;14.50;99.90
16243;DHT22;11719;51.052;6.982;2022-12-29T12:36:24;14.40;99.90
16243;DHT22;11719;51.052;6.982;2022-12-29T12:54:06;14.50;99.90
16243;DHT22;11719;51.052;6.982;2022-12-29T12:57:11;14.50;99.90
16243;DHT22;11719;51.052;6.982;2022-12-29T12:59:56;14.50;99.90
16243;DHT22;11719;51.052;6.982;2022-12-29T13:23:11;14.40;99.90
16243;DHT22;11719;51.052;6.982;2022-12-29T13:29:04;14.40;99.90
16243;DHT22;11719;51.052;6.982;2022-12-29T13:37:12;14.30;99.90
16243;DHT22;11719;51.052;6.982;2022-12-29T13:39:48;14.40;99.90
16243;DHT22;11719;51.052;6.982;2022-12-29T13:42:18;14.40;99.90
16243;DHT22;11719;51.052;6.982;2022-12-29T13:45:05;14.50;99.90
16243;DHT22;11719;51.052;6.982;2022-12-29T13:50:22;14.50;99.90
16243;DHT22;11719;51.052;6.982;2022-12-29T13:53:13;14.50;99.90
16243;DHT22;11719;51.052;6.982;2022-12-29T13:55:51;14.40;99.90
16243;DHT22;11719;51.052;6.982;2022-12-29T14:01:35;14.30;99.90
16243;DHT22;11719;51.052;6.982;2022-12-29T14:04:25;14.30;99.90
16243;DHT22;11719;51.052;6.982;2022-12-29T14:07:20;14.30;99.90
16243;DHT22;11719;51.052;6.982;2022-12-29T14:09:53;14.30;99.90
16243;DHT22;11719;51.052;6.982;2022-12-29T14:15:23;14.30;99.90
16243;DHT22;11719;51.052;6.982;2022-12-29T14:18:17;14.20;99.90
16243;DHT22;11719;51.052;6.982;2022-12-29T14:23:49;14.20;99.90
16243;DHT22;11719;51.052;6.982;2022-12-29T14:28:48;14.20;99.90
16243;DHT22;11719;51.052;6.982;2022-12-29T14:33:41;14.10;99.90
16243;DHT22;11719;51.052;6.982;2022-12-29T14:36:40;14.10;99.90
16243;DHT22;11719;51.052;6.982;2022-12-29T14:39:41;14.10;99.90
16243;DHT22;11719;51.052;6.982;2022-12-29T14:45:06;14.20;99.90
16243;DHT22;11719;51.052;6.982;2022-12-29T14:47:50;14.20;99.90
16243;DHT22;11719;51.052;6.982;2022-12-29T14:52:55;14.20;99.90
16243;DHT22;11719;51.052;6.982;2022-12-29T14:58:28;14.20;99.90
16243;DHT22;11719;51.052;6.982;2022-12-29T15:00:57;14.10;99.90
16243;DHT22;11719;51.052;6.982;2022-12-29T15:03:36;14.00;99.90
16243;DHT22;11719;51.052;6.982;2022-12-29T15:06:10;13.90;99.90
16243;DHT22;11719;51.052;6.982;2022-12-29T15:11:28;14.00;99.90
16243;DHT22;11719;51.052;6.982;2022-12-29T15:14:28;14.10;99.90
16243;DHT22;11719;51.052;6.982;2022-12-29T15:17:09;14.10;99.90
16243;DHT22;11719;51.052;6.982;2022-12-29T15:19:46;14.00;99.90
16243;DHT22;11719;51.052;6.982;2022-12-29T15:22:12;14.00;99.90
16243;DHT22;11719;51.052;6.982;2022-12-29T15:24:42;13.90;99.90
16243;DHT22;11719;51.052;6.982;2022-12-29T15:27:13;13.90;99.90
16243;DHT22;11719;51.052;6.982;2022-12-29T15:29:45;13.90;99.90
16243;DHT22;11719;51.052;6.982;2022-12-29T15:34:46;13.90;99.90
16243;DHT22;11719;51.052;6.982;2022-12-29T15:37:39;13.90;99.90
16243;DHT22;11719;51.052;6.982;2022-12-29T15:40:19;13.90;99.90
16243;DHT22;11719;51.052;6.982;2022-12-29T15:45:33;13.80;99.90
16243;DHT22;11719;51.052;6.982;2022-12-29T15:48:00;13.80;99.90
16243;DHT22;11719;51.052;6.982;2022-12-29T15:50:30;13.80;99.90
16243;DHT22;11719;51.052;6.982;2022-12-29T15:52:58;13.70;99.90
16243;DHT22;11719;51.052;6.982;2022-12-29T15:55:36;13.70;99.90
16243;DHT22;11719;51.052;6.982;2022-12-29T15:58:06;13.70;99.90
16243;DHT22;11719;51.052;6.982;2022-12-29T16:01:00;13.70;99.90
16243;DHT22;11719;51.052;6.982;2022-12-29T16:03:29;13.70;99.90
16243;DHT22;11719;51.052;6.982;2022-12-29T16:11:49;13.70;99.90
16243;DHT22;11719;51.052;6.982;2022-12-29T16:14:32;13.60;99.90
16243;DHT22;11719;51.052;6.982;2022-12-29T16:17:02;13.60;99.90
16243;DHT22;11719;51.052;6.982;2022-12-29T16:19:35;13.50;99.90
16243;DHT22;11719;51.052;6.982;2022-12-29T16:22:09;13.40;99.90
16243;DHT22;11719;51.052;6.982;2022-12-29T16:24:39;13.40;99.90
16243;DHT22;11719;51.052;6.982;2022-12-29T16:27:21;13.40;99.90
16243;DHT22;11719;51.052;6.982;2022-12-29T16:29:53;13.50;99.90
16243;DHT22;11719;51.052;6.982;2022-12-29T16:32:28;13.30;99.90
16243;DHT22;11719;51.052;6.982;2022-12-29T16:37:38;13.30;99.90
16243;DHT22;11719;51.052;6.982;2022-12-29T16:43:00;13.40;99.90
16243;DHT22;11719;51.052;6.982;2022-12-29T16:50:41;13.20;99.90
16243;DHT22;11719;51.052;6.982;2022-12-29T16:53:25;13.20;99.90
16243;DHT22;11719;51.052;6.982;2022-12-29T16:55:55;13.20;99.90
16243;DHT22;11719;51.052;6.982;2022-12-29T16:58:26;13.10;99.90
16243;DHT22;11719;51.052;6.982;2022-12-29T17:00:58;13.00;99.90
16243;DHT22;11719;51.052;6.982;2022-12-29T17:03:32;13.00;99.90
16243;DHT22;11719;51.052;6.982;2022-12-29T17:05:59;13.10;99.90
16243;DHT22;11719;51.052;6.982;2022-12-29T17:08:25;13.10;99.90
16243;DHT22;11719;51.052;6.982;2022-12-29T17:10:55;13.10;99.90
16243;DHT22;11719;51.052;6.982;2022-12-29T17:13:40;13.10;99.90
16243;DHT22;11719;51.052;6.982;2022-12-29T17:16:08;13.00;99.90
16243;DHT22;11719;51.052;6.982;2022-12-29T17:18:35;13.00;99.90
16243;DHT22;11719;51.052;6.982;2022-12-29T17:21:02;13.00;99.90
16243;DHT22;11719;51.052;6.982;2022-12-29T17:23:30;13.00;99.90
16243;DHT22;11719;51.052;6.982;2022-12-29T17:25:56;13.00;99.90
16243;DHT22;11719;51.052;6.982;2022-12-29T17:28:24;12.90;99.90
16243;DHT22;11719;51.052;6.982;2022-12-29T17:30:53;13.00;99.90
16243;DHT22;11719;51.052;6.982;2022-12-29T17:33:24;13.00;99.90
16243;DHT22;11719;51.052;6.982;2022-12-29T17:35:50;13.00;99.90
16243;DHT22;11719;51.052;6.982;2022-12-29T17:38:19;13.00;99.90
16243;DHT22;11719;51.052;6.982;2022-12-29T17:40:47;12.90;99.90
16243;DHT22;11719;51.052;6.982;2022-12-29T17:43:14;13.00;99.90
16243;DHT22;11719;51.052;6.982;2022-12-29T17:45:41;12.90;99.90
16243;DHT22;11719;51.052;6.982;2022-12-29T17:48:16;12.80;99.90
16243;DHT22;11719;51.052;6.982;2022-12-29T17:50:43;12.80;99.90
16243;DHT22;11719;51.052;6.982;2022-12-29T17:53:13;12.80;99.90
16243;DHT22;11719;51.052;6.982;2022-12-29T17:55:46;12.90;99.90
16243;DHT22;11719;51.052;6.982;2022-12-29T17:58:28;12.90;99.90
16243;DHT22;11719;51.052;6.982;2022-12-29T18:01:01;12.90;99.90
16243;DHT22;11719;51.052;6.982;2022-12-29T18:03:37;12.90;99.90
16243;DHT22;11719;51.052;6.982;2022-12-29T18:06:06;12.90;99.90
16243;DHT22;11719;51.052;6.982;2022-12-29T18:08:37;12.90;99.90
16243;DHT22;11719;51.052;6.982;2022-12-29T18:11:11;12.90;99.90
16243;DHT22;11719;51.052;6.982;2022-12-29T18:13:44;12.90;99.90
16243;DHT22;11719;51.052;6.982;2022-12-29T18:16:11;12.90;99.90
16243;DHT22;11719;51.052;6.982;2022-12-29T18:18:38;12.90;99.90
16243;DHT22;11719;51.052;6.982;2022-12-29T18:21:04;12.90;99.90
16243;DHT22;11719;51.052;6.982;2022-12-29T18:23:32;12.90;99.90
16243;DHT22;11719;51.052;6.982;2022-12-29T18:26:02;12.90;99.90
16243;DHT22;11719;51.052;6.982;2022-12-29T18:28:29;12.80;99.90
16243;DHT22;11719;51.052;6.982;2022-12-29T18:30:57;12.90;99.90
16243;DHT22;11719;51.052;6.982;2022-12-29T18:33:24;13.00;99.90
16243;DHT22;11719;51.052;6.982;2022-12-29T18:36:01;13.00;99.90
16243;DHT22;11719;51.052;6.982;2022-12-29T18:38:29;12.90;99.90
16243;DHT22;11719;51.052;6.982;2022-12-29T18:40:56;13.00;99.90
16243;DHT22;11719;51.052;6.982;2022-12-29T18:43:22;13.00;99.90
16243;DHT22;11719;51.052;6.982;2022-12-29T18:45:49;12.90;99.90